Selfridge, MI

8:32 AM EDT on March 28, 2015 (GMT -0400)
Venice Shores on Lake St. Clair | | Change Station
CLOSE
Current Station
Personal Weather Station
Location: Harrison, MI
Elevation: 577 ft
Nearby Weather Stations

Elev 577 ft 42.60 °N, 82.80 °W | Updated 10 minutes ago

Mostly Cloudy
Mostly Cloudy
17.1 °F
Feels Like 9 °F
N
5.2
Wind Variable Wind from NNW
Gusts 8.8 mph

Today
High -- | Low -- °F
--% Chance of Precip.
Yesterday
High -- | Low -- °F
Precip. -- in
7:21 AM 7:52 PM
First Quarter, 62% visible
Pressure 30.26 in
Visibility 10.0 miles
Clouds Few 1400 ft
Scattered Clouds 2700 ft
Mostly Cloudy 4200 ft
Windchill 9 °F
Dew Point 14 °F
Humidity 87%
Rainfall 0.00 in
Snow Depth Not available.
UV 0 out of 12
Pollen 4.70 out of 12
Air Quality Not available.
Flu Activity Not available.
METAR KMTC 281155Z 35006KT 10SM FEW014 SCT027 BKN042 M08/M12 A3020 RMK SLP246 60001 70001 T10851123 11074 21091 52025

More Conditions Fewer Conditions

Pressure 30.26 in
Visibility 10.0 miles
Clouds Few 1400 ft
Scattered Clouds 2700 ft
Mostly Cloudy 4200 ft
Windchill 9 °F
Dew Point 14 °F
Humidity 87%
Rainfall 0.00 in
Snow Depth Not available.
UV 0 out of 12
Pollen 4.70 out of 12
Air Quality Not available.
Flu Activity Not available.
METAR KMTC 281155Z 35006KT 10SM FEW014 SCT027 BKN042 M08/M12 A3020 RMK SLP246 60001 70001 T10851123 11074 21091 52025

More Conditions Fewer Conditions

10-Day Weather Forecast

Almanac

Astronomy

Mar. 28, 2015 Rise Set
Actual Time
Civil Twilight
Nautical Twilight
Astronomical Twilight
Moon
Length of Visible Light
Length of Day
Tomorrow will be .
, % of the Moon is Illuminated

Today's Extremes

State Highs State Lows

Community

WunderPhotos

Upload Photos

1,808,966 photos uploaded!

WunderBlogs® & News

Nearby

Air Quality

  Air Quality AQ Index Pollutant
Not available.

Snow Depth

Station Depth Elevation

Earthquake Activity

City Distance Mag. Time & Date
Minimum magnitude displayed is 2.5.

Coastal Water Temperatures

Place Temperature

Stations

Nearby Weather Stations

Station Location Temp. Windchill Dew Point Humidity Wind Precip. Elev Updated Type